sensor_id;sensor_type;location;lat;lon;timestamp;P1;durP1;ratioP1;P2;durP2;ratioP2
26530;SDS011;14201;43.188;24.160;2022-09-02T00:01:11;15.68;;;8.80;;
26530;SDS011;14201;43.188;24.160;2022-09-02T00:03:36;10.77;;;9.00;;
26530;SDS011;14201;43.188;24.160;2022-09-02T00:06:02;10.90;;;8.50;;
26530;SDS011;14201;43.188;24.160;2022-09-02T00:08:28;9.73;;;8.70;;
26530;SDS011;14201;43.188;24.160;2022-09-02T00:10:56;13.20;;;8.63;;
26530;SDS011;14201;43.188;24.160;2022-09-02T00:13:22;15.95;;;8.93;;
26530;SDS011;14201;43.188;24.160;2022-09-02T00:15:49;12.75;;;8.77;;
26530;SDS011;14201;43.188;24.160;2022-09-02T00:18:15;13.18;;;8.93;;
26530;SDS011;14201;43.188;24.160;2022-09-02T00:20:42;13.98;;;9.20;;
26530;SDS011;14201;43.188;24.160;2022-09-02T00:23:10;11.23;;;8.73;;
26530;SDS011;14201;43.188;24.160;2022-09-02T00:25:36;15.02;;;9.85;;
26530;SDS011;14201;43.188;24.160;2022-09-02T00:28:03;14.23;;;9.05;;
26530;SDS011;14201;43.188;24.160;2022-09-02T00:30:30;12.40;;;8.73;;
26530;SDS011;14201;43.188;24.160;2022-09-02T00:32:56;11.93;;;9.50;;
26530;SDS011;14201;43.188;24.160;2022-09-02T00:35:22;15.18;;;8.52;;
26530;SDS011;14201;43.188;24.160;2022-09-02T00:37:48;13.32;;;8.93;;
26530;SDS011;14201;43.188;24.160;2022-09-02T00:40:13;14.07;;;8.60;;
26530;SDS011;14201;43.188;24.160;2022-09-02T00:42:40;15.55;;;8.70;;
26530;SDS011;14201;43.188;24.160;2022-09-02T00:45:06;17.45;;;8.93;;
26530;SDS011;14201;43.188;24.160;2022-09-02T00:47:34;13.98;;;8.57;;
26530;SDS011;14201;43.188;24.160;2022-09-02T00:50:01;15.70;;;10.20;;
26530;SDS011;14201;43.188;24.160;2022-09-02T00:52:34;13.75;;;9.40;;
26530;SDS011;14201;43.188;24.160;2022-09-02T00:55:12;14.07;;;9.57;;
26530;SDS011;14201;43.188;24.160;2022-09-02T00:57:42;22.08;;;9.68;;
26530;SDS011;14201;43.188;24.160;2022-09-02T01:00:16;16.55;;;10.73;;
26530;SDS011;14201;43.188;24.160;2022-09-02T01:02:55;18.85;;;10.48;;
26530;SDS011;14201;43.188;24.160;2022-09-02T01:05:24;18.42;;;11.63;;
26530;SDS011;14201;43.188;24.160;2022-09-02T01:07:54;16.77;;;11.05;;
26530;SDS011;14201;43.188;24.160;2022-09-02T01:10:31;14.95;;;10.38;;
26530;SDS011;14201;43.188;24.160;2022-09-02T01:13:00;15.70;;;10.52;;
26530;SDS011;14201;43.188;24.160;2022-09-02T01:15:35;18.70;;;10.65;;
26530;SDS011;14201;43.188;24.160;2022-09-02T01:18:08;17.48;;;10.70;;
26530;SDS011;14201;43.188;24.160;2022-09-02T01:23:04;14.13;;;9.82;;
26530;SDS011;14201;43.188;24.160;2022-09-02T01:25:31;18.85;;;10.18;;
26530;SDS011;14201;43.188;24.160;2022-09-02T01:27:58;19.20;;;10.35;;
26530;SDS011;14201;43.188;24.160;2022-09-02T01:30:32;11.70;;;9.38;;
26530;SDS011;14201;43.188;24.160;2022-09-02T01:32:59;14.07;;;10.15;;
26530;SDS011;14201;43.188;24.160;2022-09-02T01:35:25;20.10;;;10.35;;
26530;SDS011;14201;43.188;24.160;2022-09-02T01:37:53;16.98;;;9.68;;
26530;SDS011;14201;43.188;24.160;2022-09-02T01:40:20;16.80;;;10.40;;
26530;SDS011;14201;43.188;24.160;2022-09-02T01:42:45;15.88;;;9.18;;
26530;SDS011;14201;43.188;24.160;2022-09-02T01:45:12;11.45;;;9.70;;
26530;SDS011;14201;43.188;24.160;2022-09-02T01:47:39;11.88;;;9.85;;
26530;SDS011;14201;43.188;24.160;2022-09-02T01:50:05;13.73;;;9.63;;
26530;SDS011;14201;43.188;24.160;2022-09-02T01:52:33;15.75;;;10.18;;
26530;SDS011;14201;43.188;24.160;2022-09-02T01:54:59;16.48;;;10.65;;
26530;SDS011;14201;43.188;24.160;2022-09-02T01:57:25;18.92;;;11.32;;
26530;SDS011;14201;43.188;24.160;2022-09-02T01:59:53;15.02;;;10.13;;
26530;SDS011;14201;43.188;24.160;2022-09-02T02:02:19;11.82;;;9.13;;
26530;SDS011;14201;43.188;24.160;2022-09-02T02:04:46;17.70;;;10.63;;
26530;SDS011;14201;43.188;24.160;2022-09-02T02:07:13;16.40;;;9.77;;
26530;SDS011;14201;43.188;24.160;2022-09-02T02:09:40;14.98;;;10.15;;
26530;SDS011;14201;43.188;24.160;2022-09-02T02:12:07;14.63;;;10.40;;
26530;SDS011;14201;43.188;24.160;2022-09-02T02:14:33;13.38;;;9.90;;
26530;SDS011;14201;43.188;24.160;2022-09-02T02:16:59;14.00;;;9.90;;
26530;SDS011;14201;43.188;24.160;2022-09-02T02:19:25;12.10;;;8.77;;
26530;SDS011;14201;43.188;24.160;2022-09-02T02:21:51;12.40;;;9.60;;
26530;SDS011;14201;43.188;24.160;2022-09-02T02:24:17;13.68;;;10.35;;
26530;SDS011;14201;43.188;24.160;2022-09-02T02:26:43;14.90;;;10.93;;
26530;SDS011;14201;43.188;24.160;2022-09-02T02:29:09;17.80;;;10.27;;
26530;SDS011;14201;43.188;24.160;2022-09-02T02:31:35;15.68;;;10.75;;
26530;SDS011;14201;43.188;24.160;2022-09-02T02:34:01;18.00;;;10.85;;
26530;SDS011;14201;43.188;24.160;2022-09-02T02:36:27;17.17;;;10.93;;
26530;SDS011;14201;43.188;24.160;2022-09-02T02:38:52;16.67;;;10.50;;
26530;SDS011;14201;43.188;24.160;2022-09-02T02:41:18;14.57;;;10.00;;
26530;SDS011;14201;43.188;24.160;2022-09-02T02:43:45;12.65;;;10.25;;
26530;SDS011;14201;43.188;24.160;2022-09-02T02:46:11;16.25;;;11.30;;
26530;SDS011;14201;43.188;24.160;2022-09-02T02:48:37;16.70;;;10.45;;
26530;SDS011;14201;43.188;24.160;2022-09-02T02:51:04;16.45;;;10.85;;
26530;SDS011;14201;43.188;24.160;2022-09-02T02:53:30;14.73;;;10.15;;
26530;SDS011;14201;43.188;24.160;2022-09-02T02:55:56;15.88;;;10.32;;
26530;SDS011;14201;43.188;24.160;2022-09-02T02:58:22;13.10;;;9.10;;
26530;SDS011;14201;43.188;24.160;2022-09-02T03:00:48;14.30;;;8.98;;
26530;SDS011;14201;43.188;24.160;2022-09-02T03:03:14;14.40;;;9.35;;
26530;SDS011;14201;43.188;24.160;2022-09-02T03:05:44;14.68;;;9.77;;
26530;SDS011;14201;43.188;24.160;2022-09-02T03:08:11;18.85;;;10.40;;
26530;SDS011;14201;43.188;24.160;2022-09-02T03:10:38;16.50;;;9.73;;
26530;SDS011;14201;43.188;24.160;2022-09-02T03:13:06;14.85;;;9.68;;
26530;SDS011;14201;43.188;24.160;2022-09-02T03:15:34;10.75;;;8.80;;
26530;SDS011;14201;43.188;24.160;2022-09-02T03:18:00;11.95;;;9.43;;
26530;SDS011;14201;43.188;24.160;2022-09-02T03:20:26;14.30;;;9.93;;
26530;SDS011;14201;43.188;24.160;2022-09-02T03:22:53;13.82;;;10.27;;
26530;SDS011;14201;43.188;24.160;2022-09-02T03:25:21;16.20;;;10.52;;
26530;SDS011;14201;43.188;24.160;2022-09-02T03:27:47;13.27;;;10.07;;
26530;SDS011;14201;43.188;24.160;2022-09-02T03:30:15;10.15;;;8.88;;
26530;SDS011;14201;43.188;24.160;2022-09-02T03:32:43;13.38;;;9.77;;
26530;SDS011;14201;43.188;24.160;2022-09-02T03:35:13;20.10;;;11.80;;
26530;SDS011;14201;43.188;24.160;2022-09-02T03:37:42;18.40;;;11.38;;
26530;SDS011;14201;43.188;24.160;2022-09-02T03:40:09;15.35;;;12.38;;
26530;SDS011;14201;43.188;24.160;2022-09-02T03:42:38;16.88;;;12.70;;
26530;SDS011;14201;43.188;24.160;2022-09-02T03:45:03;15.48;;;13.00;;
26530;SDS011;14201;43.188;24.160;2022-09-02T03:47:31;17.17;;;12.27;;
26530;SDS011;14201;43.188;24.160;2022-09-02T03:49:56;22.27;;;14.55;;
26530;SDS011;14201;43.188;24.160;2022-09-02T03:52:23;18.60;;;13.52;;
26530;SDS011;14201;43.188;24.160;2022-09-02T03:54:49;17.10;;;14.65;;
26530;SDS011;14201;43.188;24.160;2022-09-02T03:57:15;15.73;;;12.52;;
26530;SDS011;14201;43.188;24.160;2022-09-02T03:59:41;14.80;;;11.50;;
26530;SDS011;14201;43.188;24.160;2022-09-02T04:02:07;16.45;;;11.27;;
26530;SDS011;14201;43.188;24.160;2022-09-02T04:04:33;19.42;;;12.50;;
26530;SDS011;14201;43.188;24.160;2022-09-02T04:06:58;16.45;;;12.05;;
26530;SDS011;14201;43.188;24.160;2022-09-02T04:09:24;14.65;;;11.73;;
26530;SDS011;14201;43.188;24.160;2022-09-02T04:11:50;14.98;;;12.07;;
26530;SDS011;14201;43.188;24.160;2022-09-02T04:14:16;14.85;;;11.50;;
26530;SDS011;14201;43.188;24.160;2022-09-02T04:16:41;17.73;;;12.85;;
26530;SDS011;14201;43.188;24.160;2022-09-02T04:19:07;15.73;;;13.32;;
26530;SDS011;14201;43.188;24.160;2022-09-02T04:21:34;15.00;;;12.27;;
26530;SDS011;14201;43.188;24.160;2022-09-02T04:24:04;14.32;;;11.70;;
26530;SDS011;14201;43.188;24.160;2022-09-02T04:26:31;13.07;;;11.35;;
26530;SDS011;14201;43.188;24.160;2022-09-02T04:28:57;15.68;;;11.65;;
26530;SDS011;14201;43.188;24.160;2022-09-02T04:31:23;17.20;;;12.25;;
26530;SDS011;14201;43.188;24.160;2022-09-02T04:33:50;15.60;;;11.75;;
26530;SDS011;14201;43.188;24.160;2022-09-02T04:36:17;15.48;;;11.80;;
26530;SDS011;14201;43.188;24.160;2022-09-02T04:38:44;15.93;;;11.13;;
26530;SDS011;14201;43.188;24.160;2022-09-02T04:41:14;16.73;;;12.27;;
26530;SDS011;14201;43.188;24.160;2022-09-02T04:43:42;16.83;;;12.60;;
26530;SDS011;14201;43.188;24.160;2022-09-02T04:46:09;19.00;;;13.55;;
26530;SDS011;14201;43.188;24.160;2022-09-02T04:48:36;15.77;;;13.13;;
26530;SDS011;14201;43.188;24.160;2022-09-02T04:51:07;15.68;;;12.70;;
26530;SDS011;14201;43.188;24.160;2022-09-02T04:53:38;17.85;;;13.73;;
26530;SDS011;14201;43.188;24.160;2022-09-02T04:56:08;16.05;;;12.95;;
26530;SDS011;14201;43.188;24.160;2022-09-02T04:58:37;21.38;;;14.20;;
26530;SDS011;14201;43.188;24.160;2022-09-02T05:01:06;15.73;;;13.02;;
26530;SDS011;14201;43.188;24.160;2022-09-02T05:03:38;18.05;;;13.07;;
26530;SDS011;14201;43.188;24.160;2022-09-02T05:06:05;16.38;;;13.93;;
26530;SDS011;14201;43.188;24.160;2022-09-02T05:08:33;14.65;;;13.02;;
26530;SDS011;14201;43.188;24.160;2022-09-02T05:11:05;17.10;;;12.95;;
26530;SDS011;14201;43.188;24.160;2022-09-02T05:13:44;15.65;;;12.60;;
26530;SDS011;14201;43.188;24.160;2022-09-02T05:16:19;17.23;;;13.32;;
26530;SDS011;14201;43.188;24.160;2022-09-02T05:18:47;16.08;;;12.70;;
26530;SDS011;14201;43.188;24.160;2022-09-02T05:21:14;18.42;;;13.48;;
26530;SDS011;14201;43.188;24.160;2022-09-02T05:23:41;16.67;;;13.68;;
26530;SDS011;14201;43.188;24.160;2022-09-02T05:26:07;26.15;;;15.48;;
26530;SDS011;14201;43.188;24.160;2022-09-02T05:28:34;23.90;;;15.07;;
26530;SDS011;14201;43.188;24.160;2022-09-02T05:31:02;24.58;;;14.60;;
26530;SDS011;14201;43.188;24.160;2022-09-02T05:33:30;26.58;;;16.35;;
26530;SDS011;14201;43.188;24.160;2022-09-02T05:35:56;25.10;;;15.25;;
26530;SDS011;14201;43.188;24.160;2022-09-02T05:38:22;25.70;;;14.38;;
26530;SDS011;14201;43.188;24.160;2022-09-02T05:40:49;18.63;;;14.38;;
26530;SDS011;14201;43.188;24.160;2022-09-02T05:43:15;15.40;;;13.68;;
26530;SDS011;14201;43.188;24.160;2022-09-02T05:45:41;20.58;;;13.63;;
26530;SDS011;14201;43.188;24.160;2022-09-02T05:48:06;16.88;;;14.43;;
26530;SDS011;14201;43.188;24.160;2022-09-02T05:50:52;15.25;;;13.02;;
26530;SDS011;14201;43.188;24.160;2022-09-02T05:53:18;16.38;;;13.18;;
26530;SDS011;14201;43.188;24.160;2022-09-02T05:55:44;23.35;;;13.15;;
26530;SDS011;14201;43.188;24.160;2022-09-02T05:58:09;16.63;;;13.00;;
26530;SDS011;14201;43.188;24.160;2022-09-02T06:00:36;19.25;;;13.50;;
26530;SDS011;14201;43.188;24.160;2022-09-02T06:03:02;17.20;;;14.20;;
26530;SDS011;14201;43.188;24.160;2022-09-02T06:05:28;18.35;;;16.25;;
26530;SDS011;14201;43.188;24.160;2022-09-02T06:07:53;19.33;;;15.38;;
26530;SDS011;14201;43.188;24.160;2022-09-02T06:10:19;22.33;;;16.20;;
26530;SDS011;14201;43.188;24.160;2022-09-02T06:12:44;19.35;;;15.15;;
26530;SDS011;14201;43.188;24.160;2022-09-02T06:15:10;20.60;;;14.55;;
26530;SDS011;14201;43.188;24.160;2022-09-02T06:17:36;20.65;;;14.30;;
26530;SDS011;14201;43.188;24.160;2022-09-02T06:20:02;18.15;;;14.68;;
26530;SDS011;14201;43.188;24.160;2022-09-02T06:22:28;20.60;;;14.38;;
26530;SDS011;14201;43.188;24.160;2022-09-02T06:24:54;23.08;;;13.95;;
26530;SDS011;14201;43.188;24.160;2022-09-02T06:27:19;22.42;;;15.95;;
26530;SDS011;14201;43.188;24.160;2022-09-02T06:29:45;19.95;;;15.82;;
26530;SDS011;14201;43.188;24.160;2022-09-02T06:32:10;23.50;;;16.42;;
26530;SDS011;14201;43.188;24.160;2022-09-02T06:34:36;22.27;;;16.48;;
26530;SDS011;14201;43.188;24.160;2022-09-02T06:37:03;19.38;;;16.50;;
26530;SDS011;14201;43.188;24.160;2022-09-02T06:39:29;18.70;;;15.82;;
26530;SDS011;14201;43.188;24.160;2022-09-02T06:41:55;18.60;;;14.70;;
26530;SDS011;14201;43.188;24.160;2022-09-02T06:44:20;17.27;;;14.98;;
26530;SDS011;14201;43.188;24.160;2022-09-02T06:46:51;19.70;;;15.35;;
26530;SDS011;14201;43.188;24.160;2022-09-02T06:49:18;18.27;;;14.52;;
26530;SDS011;14201;43.188;24.160;2022-09-02T06:51:45;18.60;;;14.52;;
26530;SDS011;14201;43.188;24.160;2022-09-02T06:54:13;18.67;;;14.13;;
26530;SDS011;14201;43.188;24.160;2022-09-02T06:56:41;18.83;;;13.82;;
26530;SDS011;14201;43.188;24.160;2022-09-02T06:59:08;18.55;;;14.23;;
26530;SDS011;14201;43.188;24.160;2022-09-02T07:01:35;20.55;;;14.15;;
26530;SDS011;14201;43.188;24.160;2022-09-02T07:04:01;21.17;;;14.43;;
26530;SDS011;14201;43.188;24.160;2022-09-02T07:06:47;18.17;;;13.85;;
26530;SDS011;14201;43.188;24.160;2022-09-02T07:09:17;17.83;;;15.13;;
26530;SDS011;14201;43.188;24.160;2022-09-02T07:11:45;20.08;;;15.10;;
26530;SDS011;14201;43.188;24.160;2022-09-02T07:14:15;17.15;;;15.23;;
26530;SDS011;14201;43.188;24.160;2022-09-02T07:16:45;16.42;;;14.43;;
26530;SDS011;14201;43.188;24.160;2022-09-02T07:19:13;16.50;;;14.10;;
26530;SDS011;14201;43.188;24.160;2022-09-02T07:21:40;18.67;;;14.32;;
26530;SDS011;14201;43.188;24.160;2022-09-02T07:24:06;16.67;;;12.77;;
26530;SDS011;14201;43.188;24.160;2022-09-02T07:26:33;15.77;;;13.20;;
26530;SDS011;14201;43.188;24.160;2022-09-02T07:28:59;15.50;;;13.75;;
26530;SDS011;14201;43.188;24.160;2022-09-02T07:31:25;14.80;;;13.20;;
26530;SDS011;14201;43.188;24.160;2022-09-02T07:33:54;17.42;;;14.05;;
26530;SDS011;14201;43.188;24.160;2022-09-02T07:36:23;16.58;;;13.77;;
26530;SDS011;14201;43.188;24.160;2022-09-02T07:38:50;14.93;;;13.32;;
26530;SDS011;14201;43.188;24.160;2022-09-02T07:41:17;16.63;;;13.32;;
26530;SDS011;14201;43.188;24.160;2022-09-02T07:43:44;19.45;;;14.63;;
26530;SDS011;14201;43.188;24.160;2022-09-02T07:46:11;19.00;;;14.73;;
26530;SDS011;14201;43.188;24.160;2022-09-02T07:48:37;20.63;;;15.20;;
26530;SDS011;14201;43.188;24.160;2022-09-02T07:51:03;18.60;;;14.40;;
26530;SDS011;14201;43.188;24.160;2022-09-02T07:53:30;17.17;;;13.98;;
26530;SDS011;14201;43.188;24.160;2022-09-02T07:55:56;18.45;;;14.70;;
26530;SDS011;14201;43.188;24.160;2022-09-02T07:58:22;15.02;;;13.02;;
26530;SDS011;14201;43.188;24.160;2022-09-02T08:00:50;15.45;;;13.73;;
26530;SDS011;14201;43.188;24.160;2022-09-02T08:03:17;17.70;;;14.50;;
26530;SDS011;14201;43.188;24.160;2022-09-02T08:05:43;20.05;;;14.07;;
26530;SDS011;14201;43.188;24.160;2022-09-02T08:08:11;20.38;;;14.32;;
26530;SDS011;14201;43.188;24.160;2022-09-02T08:10:39;17.42;;;14.93;;
26530;SDS011;14201;43.188;24.160;2022-09-02T08:13:06;13.75;;;12.30;;
26530;SDS011;14201;43.188;24.160;2022-09-02T08:15:32;15.15;;;12.30;;
26530;SDS011;14201;43.188;24.160;2022-09-02T08:18:00;15.82;;;13.30;;
26530;SDS011;14201;43.188;24.160;2022-09-02T08:20:26;16.65;;;13.98;;
26530;SDS011;14201;43.188;24.160;2022-09-02T08:22:54;14.63;;;11.75;;
26530;SDS011;14201;43.188;24.160;2022-09-02T08:25:20;16.85;;;12.57;;
26530;SDS011;14201;43.188;24.160;2022-09-02T08:27:46;13.23;;;11.20;;
26530;SDS011;14201;43.188;24.160;2022-09-02T08:30:12;12.25;;;10.43;;
26530;SDS011;14201;43.188;24.160;2022-09-02T08:32:38;14.00;;;11.60;;
26530;SDS011;14201;43.188;24.160;2022-09-02T08:35:05;12.85;;;10.57;;
26530;SDS011;14201;43.188;24.160;2022-09-02T08:37:32;11.85;;;10.02;;
26530;SDS011;14201;43.188;24.160;2022-09-02T08:39:59;11.98;;;10.70;;
26530;SDS011;14201;43.188;24.160;2022-09-02T08:42:32;10.83;;;9.73;;
26530;SDS011;14201;43.188;24.160;2022-09-02T08:45:08;12.50;;;10.70;;
26530;SDS011;14201;43.188;24.160;2022-09-02T08:47:38;12.32;;;10.88;;
26530;SDS011;14201;43.188;24.160;2022-09-02T08:50:12;11.73;;;9.30;;
26530;SDS011;14201;43.188;24.160;2022-09-02T08:55:45;12.23;;;9.48;;
26530;SDS011;14201;43.188;24.160;2022-09-02T08:58:16;12.77;;;9.75;;
26530;SDS011;14201;43.188;24.160;2022-09-02T09:00:48;11.95;;;8.82;;
26530;SDS011;14201;43.188;24.160;2022-09-02T09:03:28;14.40;;;8.93;;
26530;SDS011;14201;43.188;24.160;2022-09-02T09:06:01;9.93;;;8.73;;
26530;SDS011;14201;43.188;24.160;2022-09-02T09:08:49;9.55;;;8.55;;
26530;SDS011;14201;43.188;24.160;2022-09-02T09:16:40;10.57;;;8.15;;
26530;SDS011;14201;43.188;24.160;2022-09-02T09:19:13;10.50;;;9.40;;
26530;SDS011;14201;43.188;24.160;2022-09-02T09:21:41;10.07;;;9.07;;
26530;SDS011;14201;43.188;24.160;2022-09-02T09:24:30;10.88;;;9.70;;
26530;SDS011;14201;43.188;24.160;2022-09-02T09:27:12;11.25;;;8.15;;
26530;SDS011;14201;43.188;24.160;2022-09-02T09:29:40;10.32;;;8.32;;
26530;SDS011;14201;43.188;24.160;2022-09-02T09:32:25;10.68;;;8.07;;
26530;SDS011;14201;43.188;24.160;2022-09-02T09:35:24;9.10;;;7.25;;
26530;SDS011;14201;43.188;24.160;2022-09-02T09:37:52;9.73;;;8.70;;
26530;SDS011;14201;43.188;24.160;2022-09-02T09:42:48;7.70;;;6.68;;
26530;SDS011;14201;43.188;24.160;2022-09-02T09:45:31;8.43;;;7.30;;
26530;SDS011;14201;43.188;24.160;2022-09-02T09:48:12;10.50;;;6.53;;
26530;SDS011;14201;43.188;24.160;2022-09-02T09:55:51;12.35;;;9.57;;
26530;SDS011;14201;43.188;24.160;2022-09-02T09:58:18;10.02;;;7.97;;
26530;SDS011;14201;43.188;24.160;2022-09-02T10:00:46;10.07;;;9.00;;
26530;SDS011;14201;43.188;24.160;2022-09-02T10:03:32;10.90;;;9.80;;
26530;SDS011;14201;43.188;24.160;2022-09-02T10:06:16;12.00;;;8.55;;
26530;SDS011;14201;43.188;24.160;2022-09-02T10:09:28;11.52;;;9.52;;
26530;SDS011;14201;43.188;24.160;2022-09-02T10:12:06;10.40;;;8.52;;
26530;SDS011;14201;43.188;24.160;2022-09-02T10:14:36;10.05;;;8.52;;
26530;SDS011;14201;43.188;24.160;2022-09-02T10:22:30;9.52;;;7.97;;
26530;SDS011;14201;43.188;24.160;2022-09-02T10:30:54;9.98;;;8.88;;
26530;SDS011;14201;43.188;24.160;2022-09-02T10:36:26;10.45;;;9.40;;
26530;SDS011;14201;43.188;24.160;2022-09-02T10:48:25;12.63;;;10.07;;
26530;SDS011;14201;43.188;24.160;2022-09-02T10:50:54;12.18;;;10.05;;
26530;SDS011;14201;43.188;24.160;2022-09-02T10:56:00;13.48;;;10.48;;
26530;SDS011;14201;43.188;24.160;2022-09-02T10:59:04;14.85;;;10.38;;
26530;SDS011;14201;43.188;24.160;2022-09-02T11:01:27;13.10;;;11.57;;
26530;SDS011;14201;43.188;24.160;2022-09-02T11:06:55;12.55;;;10.45;;
26530;SDS011;14201;43.188;24.160;2022-09-02T11:09:29;12.95;;;10.48;;
26530;SDS011;14201;43.188;24.160;2022-09-02T11:20:40;12.02;;;9.45;;
26530;SDS011;14201;43.188;24.160;2022-09-02T11:23:17;10.48;;;9.48;;
26530;SDS011;14201;43.188;24.160;2022-09-02T11:25:46;10.18;;;9.07;;
26530;SDS011;14201;43.188;24.160;2022-09-02T11:28:38;9.30;;;8.10;;
26530;SDS011;14201;43.188;24.160;2022-09-02T11:37:02;11.93;;;8.73;;
26530;SDS011;14201;43.188;24.160;2022-09-02T11:42:20;7.10;;;6.40;;
26530;SDS011;14201;43.188;24.160;2022-09-02T11:48:00;8.13;;;7.22;;
26530;SDS011;14201;43.188;24.160;2022-09-02T11:53:29;8.10;;;7.28;;
26530;SDS011;14201;43.188;24.160;2022-09-02T11:56:03;8.00;;;7.25;;
26530;SDS011;14201;43.188;24.160;2022-09-02T11:58:44;9.10;;;7.25;;
26530;SDS011;14201;43.188;24.160;2022-09-02T12:03:44;9.18;;;7.40;;
26530;SDS011;14201;43.188;24.160;2022-09-02T12:06:15;8.07;;;5.90;;
26530;SDS011;14201;43.188;24.160;2022-09-02T12:11:09;11.10;;;6.50;;
26530;SDS011;14201;43.188;24.160;2022-09-02T12:19:30;7.00;;;6.30;;
26530;SDS011;14201;43.188;24.160;2022-09-02T12:24:56;6.60;;;5.53;;
26530;SDS011;14201;43.188;24.160;2022-09-02T12:27:41;8.02;;;6.82;;
26530;SDS011;14201;43.188;24.160;2022-09-02T12:30:09;9.55;;;6.15;;
26530;SDS011;14201;43.188;24.160;2022-09-02T12:35:28;7.55;;;6.40;;
26530;SDS011;14201;43.188;24.160;2022-09-02T12:40:35;9.63;;;6.85;;
26530;SDS011;14201;43.188;24.160;2022-09-02T12:43:15;7.28;;;6.57;;
26530;SDS011;14201;43.188;24.160;2022-09-02T12:45:50;8.45;;;7.15;;
26530;SDS011;14201;43.188;24.160;2022-09-02T12:48:22;8.45;;;6.80;;
26530;SDS011;14201;43.188;24.160;2022-09-02T12:50:53;7.32;;;6.63;;
26530;SDS011;14201;43.188;24.160;2022-09-02T12:56:01;11.68;;;6.93;;
26530;SDS011;14201;43.188;24.160;2022-09-02T12:58:49;7.15;;;6.43;;
26530;SDS011;14201;43.188;24.160;2022-09-02T13:04:03;8.15;;;6.60;;
26530;SDS011;14201;43.188;24.160;2022-09-02T13:07:22;7.45;;;6.45;;
26530;SDS011;14201;43.188;24.160;2022-09-02T13:09:52;8.27;;;5.53;;
26530;SDS011;14201;43.188;24.160;2022-09-02T13:15:28;7.20;;;6.18;;
26530;SDS011;14201;43.188;24.160;2022-09-02T13:18:10;7.55;;;6.38;;
26530;SDS011;14201;43.188;24.160;2022-09-02T13:34:45;9.43;;;8.32;;
26530;SDS011;14201;43.188;24.160;2022-09-02T13:40:00;10.88;;;8.50;;
26530;SDS011;14201;43.188;24.160;2022-09-02T13:42:30;10.00;;;7.65;;
26530;SDS011;14201;43.188;24.160;2022-09-02T13:45:09;10.05;;;7.63;;
26530;SDS011;14201;43.188;24.160;2022-09-02T13:47:43;8.55;;;7.72;;
26530;SDS011;14201;43.188;24.160;2022-09-02T13:50:12;8.57;;;7.50;;
26530;SDS011;14201;43.188;24.160;2022-09-02T13:52:40;10.00;;;7.82;;
26530;SDS011;14201;43.188;24.160;2022-09-02T13:55:09;9.25;;;7.53;;
26530;SDS011;14201;43.188;24.160;2022-09-02T13:57:38;11.57;;;8.48;;
26530;SDS011;14201;43.188;24.160;2022-09-02T14:00:11;8.88;;;7.88;;
26530;SDS011;14201;43.188;24.160;2022-09-02T14:02:40;10.27;;;8.48;;
26530;SDS011;14201;43.188;24.160;2022-09-02T14:05:21;13.13;;;8.45;;
26530;SDS011;14201;43.188;24.160;2022-09-02T14:12:46;12.25;;;8.40;;
26530;SDS011;14201;43.188;24.160;2022-09-02T14:15:14;13.75;;;7.75;;
26530;SDS011;14201;43.188;24.160;2022-09-02T14:17:41;10.77;;;7.97;;
26530;SDS011;14201;43.188;24.160;2022-09-02T14:22:39;9.27;;;7.32;;
26530;SDS011;14201;43.188;24.160;2022-09-02T14:25:10;9.88;;;7.05;;
26530;SDS011;14201;43.188;24.160;2022-09-02T14:27:38;9.07;;;6.40;;
26530;SDS011;14201;43.188;24.160;2022-09-02T14:30:05;9.90;;;6.20;;
26530;SDS011;14201;43.188;24.160;2022-09-02T14:32:34;9.50;;;5.82;;
26530;SDS011;14201;43.188;24.160;2022-09-02T14:38:13;13.63;;;5.65;;
26530;SDS011;14201;43.188;24.160;2022-09-02T14:40:33;9.57;;;5.80;;
26530;SDS011;14201;43.188;24.160;2022-09-02T14:43:10;10.25;;;5.60;;
26530;SDS011;14201;43.188;24.160;2022-09-02T14:45:38;10.95;;;6.25;;
26530;SDS011;14201;43.188;24.160;2022-09-02T14:48:14;10.23;;;7.05;;
26530;SDS011;14201;43.188;24.160;2022-09-02T14:50:45;10.18;;;6.35;;
26530;SDS011;14201;43.188;24.160;2022-09-02T14:53:12;9.18;;;6.07;;
26530;SDS011;14201;43.188;24.160;2022-09-02T14:55:46;12.55;;;6.82;;
26530;SDS011;14201;43.188;24.160;2022-09-02T14:58:16;13.02;;;7.35;;
26530;SDS011;14201;43.188;24.160;2022-09-02T15:00:46;11.85;;;8.50;;
26530;SDS011;14201;43.188;24.160;2022-09-02T15:03:16;12.38;;;9.02;;
26530;SDS011;14201;43.188;24.160;2022-09-02T15:05:43;13.13;;;9.23;;
26530;SDS011;14201;43.188;24.160;2022-09-02T15:08:09;12.18;;;9.63;;
26530;SDS011;14201;43.188;24.160;2022-09-02T15:10:36;15.88;;;10.57;;
26530;SDS011;14201;43.188;24.160;2022-09-02T15:13:04;14.45;;;10.10;;
26530;SDS011;14201;43.188;24.160;2022-09-02T15:15:32;19.52;;;10.50;;
26530;SDS011;14201;43.188;24.160;2022-09-02T15:17:58;14.75;;;11.00;;
26530;SDS011;14201;43.188;24.160;2022-09-02T15:20:23;14.30;;;10.40;;
26530;SDS011;14201;43.188;24.160;2022-09-02T15:22:50;13.02;;;10.70;;
26530;SDS011;14201;43.188;24.160;2022-09-02T15:25:18;16.17;;;10.63;;
26530;SDS011;14201;43.188;24.160;2022-09-02T15:27:44;14.25;;;9.32;;
26530;SDS011;14201;43.188;24.160;2022-09-02T15:30:10;12.55;;;10.00;;
26530;SDS011;14201;43.188;24.160;2022-09-02T15:32:36;15.15;;;9.93;;
26530;SDS011;14201;43.188;24.160;2022-09-02T15:35:02;12.95;;;9.43;;
26530;SDS011;14201;43.188;24.160;2022-09-02T15:37:29;15.45;;;10.20;;
26530;SDS011;14201;43.188;24.160;2022-09-02T15:39:54;10.82;;;9.05;;
26530;SDS011;14201;43.188;24.160;2022-09-02T15:42:20;13.55;;;9.05;;
26530;SDS011;14201;43.188;24.160;2022-09-02T15:44:46;10.20;;;8.50;;
26530;SDS011;14201;43.188;24.160;2022-09-02T15:47:11;14.40;;;9.02;;
26530;SDS011;14201;43.188;24.160;2022-09-02T15:49:37;12.18;;;8.60;;
26530;SDS011;14201;43.188;24.160;2022-09-02T15:52:03;12.95;;;9.18;;
26530;SDS011;14201;43.188;24.160;2022-09-02T15:54:30;11.40;;;9.38;;
26530;SDS011;14201;43.188;24.160;2022-09-02T15:56:56;11.18;;;8.00;;
26530;SDS011;14201;43.188;24.160;2022-09-02T15:59:23;9.30;;;6.90;;
26530;SDS011;14201;43.188;24.160;2022-09-02T16:01:50;13.35;;;8.50;;
26530;SDS011;14201;43.188;24.160;2022-09-02T16:04:20;11.93;;;8.23;;
26530;SDS011;14201;43.188;24.160;2022-09-02T16:06:47;13.43;;;8.25;;
26530;SDS011;14201;43.188;24.160;2022-09-02T16:09:16;10.35;;;7.15;;
26530;SDS011;14201;43.188;24.160;2022-09-02T16:11:43;10.30;;;7.32;;
26530;SDS011;14201;43.188;24.160;2022-09-02T16:14:11;10.98;;;7.22;;
26530;SDS011;14201;43.188;24.160;2022-09-02T16:16:37;11.18;;;7.85;;
26530;SDS011;14201;43.188;24.160;2022-09-02T16:19:03;9.95;;;7.53;;
26530;SDS011;14201;43.188;24.160;2022-09-02T16:21:31;10.30;;;7.68;;
26530;SDS011;14201;43.188;24.160;2022-09-02T16:23:57;12.38;;;7.47;;
26530;SDS011;14201;43.188;24.160;2022-09-02T16:26:27;13.57;;;7.90;;
26530;SDS011;14201;43.188;24.160;2022-09-02T16:28:59;10.23;;;7.32;;
26530;SDS011;14201;43.188;24.160;2022-09-02T16:31:29;10.45;;;7.13;;
26530;SDS011;14201;43.188;24.160;2022-09-02T16:34:00;10.68;;;9.45;;